createdAt,value
2022-10-16T00:00:36.151Z,18.4
2022-10-16T00:02:53.614Z,18.4
2022-10-16T00:05:12.071Z,18.4
2022-10-16T00:07:29.495Z,18.6
2022-10-16T00:09:46.961Z,19.3
2022-10-16T00:14:22.360Z,18.6
2022-10-16T00:16:39.693Z,18.3
2022-10-16T00:18:57.552Z,18.8
2022-10-16T00:21:14.613Z,19.6
2022-10-16T00:23:32.254Z,18.4
2022-10-16T00:25:50.088Z,18.3
2022-10-16T00:28:07.575Z,18.9
2022-10-16T00:32:42.762Z,18.5
2022-10-16T00:35:00.105Z,18.3
2022-10-16T00:37:17.603Z,19.1
2022-10-16T00:39:35.242Z,18.2
2022-10-16T00:44:10.653Z,18.6
2022-10-16T00:46:27.938Z,19.3
2022-10-16T00:48:45.493Z,19
2022-10-16T00:51:03.336Z,18.8
2022-10-16T00:53:20.847Z,18.9
2022-10-16T01:00:14.680Z,19
2022-10-16T01:02:31.676Z,18.3
2022-10-16T01:04:49.467Z,18.3
2022-10-16T01:07:07.245Z,18.4
2022-10-16T01:09:24.955Z,18.3
2022-10-16T01:11:42.569Z,18.2
2022-10-16T01:14:00.029Z,18.8
2022-10-16T01:16:17.859Z,19.4
2022-10-16T01:18:35.349Z,18.6
2022-10-16T01:20:53.214Z,17.7
2022-10-16T01:23:10.555Z,18.4
2022-10-16T01:25:28.491Z,18
2022-10-16T01:27:45.855Z,18.5
2022-10-16T01:30:03.550Z,18.3
2022-10-16T01:32:21.311Z,18.2
2022-10-16T01:34:38.830Z,17.9
2022-10-16T01:36:56.546Z,19.2
2022-10-16T01:39:14.049Z,18.3
2022-10-16T01:41:32.453Z,18.4
2022-10-16T01:43:49.983Z,18.3
2022-10-16T01:46:07.865Z,18.3
2022-10-16T01:48:25.274Z,18.9
2022-10-16T01:50:43.257Z,19
2022-10-16T01:53:00.460Z,18.2
2022-10-16T01:55:17.992Z,18.1
2022-10-16T01:57:35.736Z,18.4
2022-10-16T01:59:53.253Z,18.1
2022-10-16T02:02:11.148Z,17.9
2022-10-16T02:04:28.525Z,17.8
2022-10-16T02:06:46.296Z,18.4
2022-10-16T02:09:03.818Z,18.2
2022-10-16T02:11:21.580Z,19.2
2022-10-16T02:13:39.136Z,18.9
2022-10-16T02:15:56.548Z,18.6
2022-10-16T02:18:14.311Z,18.2
2022-10-16T02:20:32.347Z,18.2
2022-10-16T02:22:49.621Z,18.4
2022-10-16T02:25:07.173Z,17.9
2022-10-16T02:27:24.936Z,18.3
2022-10-16T02:29:42.513Z,17.8
2022-10-16T02:32:00.532Z,17.8
2022-10-16T02:34:17.851Z,18.2
2022-10-16T02:36:35.918Z,18.3
2022-10-16T02:38:53.169Z,18.3
2022-10-16T02:41:10.738Z,18.6
2022-10-16T02:43:28.382Z,18.6
2022-10-16T02:48:03.807Z,18.4
2022-10-16T02:50:21.196Z,18.6
2022-10-16T02:52:40.021Z,17.8
2022-10-16T02:54:57.061Z,18.3
2022-10-16T02:57:14.294Z,18.5
2022-10-16T02:59:31.875Z,18.3
2022-10-16T03:01:49.365Z,17.6
2022-10-16T03:04:07.053Z,17.6
2022-10-16T03:06:24.539Z,17.6
2022-10-16T03:08:42.380Z,18.3
2022-10-16T03:11:00.083Z,18.1
2022-10-16T03:13:17.838Z,18.4
2022-10-16T03:15:35.161Z,17.8
2022-10-16T03:17:53.194Z,18
2022-10-16T03:20:10.480Z,18.1
2022-10-16T03:22:28.134Z,17.8
2022-10-16T03:24:45.731Z,17.9
2022-10-16T03:27:03.316Z,18.1
2022-10-16T03:29:21.116Z,19.1
2022-10-16T03:31:38.599Z,18.3
2022-10-16T03:33:56.423Z,18.2
2022-10-16T03:36:14.089Z,18
2022-10-16T03:38:31.649Z,18
2022-10-16T03:40:49.144Z,18.3
2022-10-16T03:43:06.960Z,18.1
2022-10-16T03:45:24.994Z,17.8
2022-10-16T03:47:41.964Z,18.2
2022-10-16T03:49:59.597Z,18.1
2022-10-16T03:52:17.200Z,18.1
2022-10-16T03:54:34.941Z,18.1
2022-10-16T03:56:52.438Z,18.6
2022-10-16T04:01:27.799Z,18.3
2022-10-16T04:03:45.853Z,18.3
2022-10-16T04:06:03.250Z,18.3
2022-10-16T04:08:20.514Z,18.1
2022-10-16T04:10:38.275Z,17.9
2022-10-16T04:12:55.773Z,18.1
2022-10-16T04:15:13.503Z,18.3
2022-10-16T04:17:31.026Z,18.2
2022-10-16T04:19:48.804Z,18.3
2022-10-16T04:22:06.295Z,17.3
2022-10-16T04:24:24.010Z,17.8
2022-10-16T04:26:41.561Z,17.9
2022-10-16T04:28:59.576Z,18.1
2022-10-16T04:31:16.899Z,18.1
2022-10-16T04:33:34.377Z,18.1
2022-10-16T04:35:52.197Z,18.1
2022-10-16T04:38:09.961Z,17.8
2022-10-16T04:40:27.934Z,17.9
2022-10-16T04:42:45.841Z,17.8
2022-10-16T04:45:03.252Z,18.2
2022-10-16T04:47:20.846Z,18.3
2022-10-16T04:51:56.055Z,18.1
2022-10-16T04:54:13.769Z,18.1
2022-10-16T04:56:31.309Z,18.3
2022-10-16T04:58:48.791Z,17.7
2022-10-16T05:01:06.530Z,17.9
2022-10-16T05:03:24.243Z,18.1
2022-10-16T05:05:41.918Z,17.6
2022-10-16T05:07:59.510Z,17.3
2022-10-16T05:10:17.463Z,17.3
2022-10-16T05:12:34.728Z,17.6
2022-10-16T05:14:52.526Z,18
2022-10-16T05:17:10.107Z,18.1
2022-10-16T05:19:40.377Z,18.4
2022-10-16T05:21:57.764Z,17.8
2022-10-16T05:24:15.422Z,17.9
2022-10-16T05:26:32.830Z,18.1
2022-10-16T05:28:50.601Z,17.8
2022-10-16T05:31:08.040Z,17.9
2022-10-16T05:33:25.588Z,18.5
2022-10-16T05:35:43.392Z,17.8
2022-10-16T05:38:00.778Z,18.2
2022-10-16T05:40:18.283Z,17.3
2022-10-16T05:42:35.819Z,17.9
2022-10-16T05:44:53.350Z,18.4
2022-10-16T05:47:10.787Z,18.6
2022-10-16T05:49:28.501Z,17.9
2022-10-16T05:51:46.058Z,18.1
2022-10-16T05:54:03.468Z,18.6
2022-10-16T05:56:21.075Z,18.1
2022-10-16T05:58:38.758Z,18
2022-10-16T06:00:56.556Z,18
2022-10-16T06:03:14.027Z,18.1
2022-10-16T06:05:31.618Z,19.2
2022-10-16T06:07:49.322Z,18.8
2022-10-16T06:10:07.076Z,18.6
2022-10-16T06:12:24.963Z,18.5
2022-10-16T06:17:00.268Z,18.8
2022-10-16T06:19:17.974Z,18.4
2022-10-16T06:23:53.363Z,18.9
2022-10-16T06:26:10.958Z,18.6
2022-10-16T06:28:28.765Z,19
2022-10-16T06:30:46.144Z,19.1
2022-10-16T06:33:03.732Z,19
2022-10-16T06:35:21.558Z,19.3
2022-10-16T06:37:39.168Z,18.9
2022-10-16T06:39:56.921Z,18.9
2022-10-16T06:42:14.933Z,20.1
2022-10-16T06:44:32.232Z,19.4
2022-10-16T06:46:49.861Z,19.4
2022-10-16T06:49:07.484Z,19.5
2022-10-16T06:51:25.082Z,19.4
2022-10-16T06:53:54.845Z,19.4
2022-10-16T06:56:07.487Z,19.6
2022-10-16T06:58:26.011Z,19.1
2022-10-16T07:00:43.778Z,18.9
2022-10-16T07:03:01.171Z,19.1
2022-10-16T07:05:18.747Z,19.8
2022-10-16T07:07:36.567Z,19.3
2022-10-16T07:09:54.219Z,19
2022-10-16T07:12:12.055Z,19
2022-10-16T07:14:29.551Z,18.9
2022-10-16T07:16:47.134Z,19
2022-10-16T07:19:04.661Z,19.3
2022-10-16T07:21:22.117Z,21
2022-10-16T07:23:40.011Z,19.8
2022-10-16T07:25:57.590Z,19.4
2022-10-16T07:28:15.553Z,19.6
2022-10-16T07:30:32.616Z,20
2022-10-16T07:32:50.184Z,21.5
2022-10-16T07:35:07.700Z,22.1
2022-10-16T07:37:25.765Z,20.3
2022-10-16T07:39:43.130Z,20.6
2022-10-16T07:42:00.343Z,20.3
2022-10-16T07:44:17.772Z,21.3
2022-10-16T07:46:35.753Z,21.6
2022-10-16T07:48:52.757Z,21.6
2022-10-16T07:51:10.177Z,20.1
2022-10-16T07:53:27.919Z,20.4
2022-10-16T07:55:45.131Z,20.7
2022-10-16T07:58:02.675Z,20.6
2022-10-16T08:00:19.854Z,20.4
2022-10-16T08:02:37.186Z,20.4
2022-10-16T08:04:54.745Z,20.6
2022-10-16T08:07:12.114Z,20.7
2022-10-16T08:09:29.505Z,20.8
2022-10-16T08:11:46.699Z,20.9
2022-10-16T08:14:04.583Z,21
2022-10-16T08:16:21.714Z,21.3
2022-10-16T08:18:39.226Z,21
2022-10-16T08:20:56.373Z,20.9
2022-10-16T08:23:13.412Z,23.6
2022-10-16T08:25:30.835Z,21.9
2022-10-16T08:27:48.189Z,22.8
2022-10-16T08:30:05.689Z,22.3
2022-10-16T08:32:25.257Z,22
2022-10-16T08:34:40.532Z,22.2
2022-10-16T08:36:58.165Z,22
2022-10-16T08:39:15.703Z,22.2
2022-10-16T08:41:32.903Z,22.2
2022-10-16T08:43:50.591Z,22.6
2022-10-16T08:46:07.934Z,22.4
2022-10-16T08:48:25.374Z,22.4
2022-10-16T08:50:43.179Z,22.6
2022-10-16T08:53:00.510Z,23.1
2022-10-16T08:55:18.091Z,22.4
2022-10-16T08:57:35.554Z,22.8
2022-10-16T08:59:53.336Z,22.4
2022-10-16T09:02:10.577Z,22.6
2022-10-16T09:04:28.236Z,22.9
2022-10-16T09:06:45.713Z,22.6
2022-10-16T09:09:03.205Z,22.9
2022-10-16T09:11:20.897Z,22.8
2022-10-16T09:13:38.112Z,22.9
2022-10-16T09:15:55.939Z,22.8
2022-10-16T09:18:13.436Z,22.8
2022-10-16T09:20:31.061Z,22.8
2022-10-16T09:22:48.469Z,22.8
2022-10-16T09:25:06.274Z,22.7
2022-10-16T09:27:23.769Z,22.9
2022-10-16T09:29:41.406Z,22.8
2022-10-16T09:31:58.909Z,22.9
2022-10-16T09:34:16.298Z,23
2022-10-16T09:36:34.185Z,22.9
2022-10-16T09:38:51.527Z,23
2022-10-16T09:41:09.301Z,22.9
2022-10-16T09:43:26.672Z,23
2022-10-16T09:45:44.852Z,23
2022-10-16T09:48:02.029Z,22.8
2022-10-16T09:50:19.862Z,22.9
2022-10-16T09:52:37.269Z,22.9
2022-10-16T09:54:54.860Z,23
2022-10-16T09:57:12.660Z,22.9
2022-10-16T09:59:30.167Z,22.9
2022-10-16T10:01:47.867Z,22.8
2022-10-16T10:04:05.523Z,22.9
2022-10-16T10:06:23.351Z,22.8
2022-10-16T10:08:40.932Z,22.9
2022-10-16T10:10:58.625Z,22.8
2022-10-16T10:13:16.254Z,22.9
2022-10-16T10:15:34.650Z,22.9
2022-10-16T10:17:52.088Z,22.8
2022-10-16T10:20:09.768Z,22.8
2022-10-16T10:22:27.822Z,22.8
2022-10-16T10:24:45.016Z,22.8
2022-10-16T10:27:02.998Z,22.8
2022-10-16T10:29:20.619Z,22.8
2022-10-16T10:31:38.566Z,22.7
2022-10-16T10:33:55.740Z,22.7
2022-10-16T10:36:13.534Z,22.7
2022-10-16T10:38:31.069Z,22.5
2022-10-16T10:40:48.643Z,22.8
2022-10-16T10:43:06.437Z,22.6
2022-10-16T10:45:24.052Z,22.7
2022-10-16T10:47:41.777Z,22.6
2022-10-16T10:49:59.377Z,22.8
2022-10-16T10:52:17.154Z,22.6
2022-10-16T10:54:34.561Z,22.5
2022-10-16T10:56:52.417Z,22.5
2022-10-16T10:59:10.126Z,22.5
2022-10-16T11:01:27.958Z,22.6
2022-10-16T11:03:45.560Z,22.6
2022-10-16T11:06:03.028Z,22.5
2022-10-16T11:08:20.848Z,22.4
2022-10-16T11:10:38.339Z,22.4
2022-10-16T11:12:56.188Z,22.5
2022-10-16T11:15:13.678Z,22.5
2022-10-16T11:17:31.893Z,22.5
2022-10-16T11:19:49.169Z,22.3
2022-10-16T11:22:06.937Z,22.3
2022-10-16T11:24:24.617Z,22.4
2022-10-16T11:26:42.135Z,22.4
2022-10-16T11:28:59.949Z,22.3
2022-10-16T11:31:17.519Z,22.3
2022-10-16T11:33:35.398Z,22.3
2022-10-16T11:35:52.830Z,22.2
2022-10-16T11:38:10.591Z,22.3
2022-10-16T11:40:28.155Z,22.3
2022-10-16T11:42:45.948Z,22.3
2022-10-16T11:45:03.438Z,22.3
2022-10-16T11:47:59.007Z,22.3
2022-10-16T11:50:10.565Z,22
2022-10-16T11:52:27.859Z,22.2
2022-10-16T11:54:45.664Z,22
2022-10-16T11:57:03.216Z,22.1
2022-10-16T11:59:21.070Z,22.1
2022-10-16T12:01:38.580Z,22
2022-10-16T12:03:56.306Z,21.9
2022-10-16T12:06:13.969Z,21.9
2022-10-16T12:08:31.941Z,22.1
2022-10-16T12:10:49.234Z,21.8
2022-10-16T12:13:06.983Z,22.1
2022-10-16T12:16:05.384Z,21.9
2022-10-16T12:18:23.449Z,21.8
2022-10-16T12:20:41.139Z,21.8
2022-10-16T12:22:58.709Z,21.9
2022-10-16T12:25:16.281Z,21.9
2022-10-16T12:27:33.837Z,21.9
2022-10-16T12:29:51.436Z,21.8
2022-10-16T12:32:10.842Z,21.8
2022-10-16T12:34:39.530Z,21.8
2022-10-16T12:36:57.274Z,21.8
2022-10-16T12:39:15.479Z,21.7
2022-10-16T12:41:32.366Z,21.8
2022-10-16T12:43:49.941Z,21.6
2022-10-16T12:46:07.560Z,21.6
2022-10-16T12:48:26.574Z,21.7
2022-10-16T12:50:55.452Z,21.7
2022-10-16T12:53:13.057Z,21.6
2022-10-16T12:55:30.831Z,21.6
2022-10-16T12:57:48.385Z,21.7
2022-10-16T13:00:06.283Z,21.6
2022-10-16T13:02:23.925Z,21.5
2022-10-16T13:04:41.637Z,21.6
2022-10-16T13:06:59.279Z,21.6
2022-10-16T13:09:16.890Z,21.6
2022-10-16T13:11:34.722Z,21.5
2022-10-16T13:13:52.318Z,21.6
2022-10-16T13:16:09.954Z,21.6
2022-10-16T13:18:27.654Z,21.5
2022-10-16T13:20:45.455Z,21.5
2022-10-16T13:23:02.992Z,21.5
2022-10-16T13:25:20.947Z,21.4
2022-10-16T13:27:38.385Z,21.4
2022-10-16T13:29:56.509Z,21.4
2022-10-16T13:32:13.756Z,21.3
2022-10-16T13:34:31.279Z,21.4
2022-10-16T13:36:49.025Z,21.5
2022-10-16T13:39:06.650Z,21.3
2022-10-16T13:41:24.457Z,21.2
2022-10-16T13:43:42.039Z,21.4
2022-10-16T13:46:00.147Z,21.2
2022-10-16T13:48:17.276Z,21.3
2022-10-16T13:50:35.233Z,21.4
2022-10-16T13:52:52.680Z,21.3
2022-10-16T13:57:29.363Z,21.3
2022-10-16T13:59:46.317Z,21.3
2022-10-16T14:02:03.882Z,21.3
2022-10-16T14:04:21.446Z,21.4
2022-10-16T14:06:39.240Z,21.4
2022-10-16T14:08:56.740Z,21.2
2022-10-16T14:11:14.594Z,21.3
2022-10-16T14:13:32.164Z,21.2
2022-10-16T14:15:50.402Z,21.2
2022-10-16T14:18:07.571Z,21.6
2022-10-16T14:20:25.130Z,21.1
2022-10-16T14:22:42.962Z,21.2
2022-10-16T14:25:00.549Z,20.9
2022-10-16T14:27:18.377Z,21.1
2022-10-16T14:29:36.087Z,21
2022-10-16T14:31:53.933Z,21.3
2022-10-16T14:34:11.223Z,21.2
2022-10-16T14:36:28.929Z,20.9
2022-10-16T14:38:46.636Z,20.9
2022-10-16T14:43:22.574Z,21
2022-10-16T14:45:39.979Z,20.9
2022-10-16T14:47:57.922Z,20.9
2022-10-16T14:50:15.328Z,21.1
2022-10-16T14:52:33.185Z,20.9
2022-10-16T14:54:50.858Z,20.9
2022-10-16T14:57:08.698Z,20.9
2022-10-16T14:59:26.323Z,20.8
2022-10-16T15:01:44.825Z,20.9
2022-10-16T15:04:01.733Z,21.9
2022-10-16T15:06:19.259Z,20.7
2022-10-16T15:08:37.102Z,20.9
2022-10-16T15:10:54.663Z,20.8
2022-10-16T15:13:12.625Z,20.8
2022-10-16T15:15:30.209Z,20.8
2022-10-16T15:17:47.904Z,20.8
2022-10-16T15:20:05.498Z,20.8
2022-10-16T15:22:23.340Z,20.8
2022-10-16T15:24:40.882Z,20.7
2022-10-16T15:26:58.442Z,20.7
2022-10-16T15:29:15.918Z,20.6
2022-10-16T15:31:33.575Z,21.1
2022-10-16T15:33:50.819Z,21.4
2022-10-16T15:36:08.328Z,21.5
2022-10-16T15:38:25.905Z,20.8
2022-10-16T15:40:43.364Z,20.9
2022-10-16T15:43:01.065Z,20.1
2022-10-16T15:45:18.302Z,20.1
2022-10-16T15:47:36.205Z,21.5
2022-10-16T15:49:53.486Z,20.2
2022-10-16T15:52:10.906Z,20.4
2022-10-16T15:54:29.133Z,20.2
2022-10-16T15:56:45.871Z,19.8
2022-10-16T15:59:03.495Z,19.8
2022-10-16T16:01:20.933Z,19.9
2022-10-16T16:03:38.506Z,19.7
2022-10-16T16:06:05.055Z,19.8
2022-10-16T16:08:22.458Z,19.8
2022-10-16T16:10:39.853Z,19.8
2022-10-16T16:12:57.252Z,19.8
2022-10-16T16:15:14.679Z,19.8
2022-10-16T16:17:32.050Z,20
2022-10-16T16:19:49.492Z,19.6
2022-10-16T16:22:08.272Z,19.6
2022-10-16T16:24:24.762Z,20.4
2022-10-16T16:26:42.317Z,20.1
2022-10-16T16:28:59.995Z,20.3
2022-10-16T16:31:17.619Z,20.2
2022-10-16T16:33:35.562Z,20.1
2022-10-16T16:35:52.943Z,20.3
2022-10-16T16:38:10.437Z,20.1
2022-10-16T16:40:28.033Z,19.7
2022-10-16T16:42:45.720Z,20.2
2022-10-16T16:45:03.106Z,20.1
2022-10-16T16:47:20.870Z,20.9
2022-10-16T16:49:38.525Z,20.3
2022-10-16T16:51:56.150Z,20
2022-10-16T16:54:13.861Z,19.9
2022-10-16T16:56:31.624Z,19.8
2022-10-16T16:58:49.136Z,19.9
2022-10-16T17:01:19.212Z,19.8
2022-10-16T17:03:24.501Z,19.8
2022-10-16T17:05:42.065Z,20.1
2022-10-16T17:07:59.616Z,21.7
2022-10-16T17:10:17.162Z,20.1
2022-10-16T17:12:35.419Z,19.9
2022-10-16T17:14:52.951Z,20.1
2022-10-16T17:17:10.091Z,19.8
2022-10-16T17:19:28.981Z,19.9
2022-10-16T17:21:45.355Z,19.9
2022-10-16T17:24:03.054Z,19.7
2022-10-16T17:26:20.627Z,19.9
2022-10-16T17:28:38.369Z,19.8
2022-10-16T17:30:55.969Z,19.9
2022-10-16T17:33:13.408Z,19.9
2022-10-16T17:35:31.136Z,19.8
2022-10-16T17:37:48.758Z,19.9
2022-10-16T17:40:06.570Z,19.8
2022-10-16T17:42:24.157Z,19.8
2022-10-16T17:44:41.725Z,19.9
2022-10-16T17:46:59.437Z,19.5
2022-10-16T17:49:16.976Z,19.8
2022-10-16T17:51:34.662Z,19.5
2022-10-16T17:53:52.250Z,19.6
2022-10-16T17:56:09.880Z,19.4
2022-10-16T17:58:30.594Z,19.8
2022-10-16T18:00:45.145Z,19.9
2022-10-16T18:03:02.785Z,19.6
2022-10-16T18:05:20.438Z,19.8
2022-10-16T18:07:37.928Z,20.4
2022-10-16T18:10:13.557Z,20.1
2022-10-16T18:12:30.921Z,20.1
2022-10-16T18:14:48.456Z,21.2
2022-10-16T18:17:06.093Z,19.8
2022-10-16T18:19:23.586Z,19.8
2022-10-16T18:21:41.175Z,19.8
2022-10-16T18:23:59.339Z,19.8
2022-10-16T18:26:16.521Z,19.8
2022-10-16T18:28:34.335Z,19
2022-10-16T18:30:51.921Z,19.4
2022-10-16T18:33:09.127Z,20.6
2022-10-16T18:35:26.525Z,19.6
2022-10-16T18:37:44.355Z,19.8
2022-10-16T18:40:01.818Z,20
2022-10-16T18:42:20.114Z,19.4
2022-10-16T18:44:37.202Z,20.3
2022-10-16T18:46:54.892Z,19.4
2022-10-16T18:49:12.358Z,19.3
2022-10-16T18:51:29.993Z,19.3
2022-10-16T18:53:47.715Z,19.5
2022-10-16T18:56:05.357Z,19.6
2022-10-16T18:58:22.987Z,19.6
2022-10-16T19:00:40.844Z,19.3
2022-10-16T19:02:58.391Z,19.4
2022-10-16T19:05:16.328Z,19.3
2022-10-16T19:07:33.658Z,19.1
2022-10-16T19:09:51.304Z,19.3
2022-10-16T19:12:09.117Z,19.4
2022-10-16T19:14:26.454Z,19
2022-10-16T19:16:44.233Z,20.1
2022-10-16T19:19:01.599Z,19.6
2022-10-16T19:21:19.219Z,19.7
2022-10-16T19:23:36.825Z,19.7
2022-10-16T19:25:54.500Z,19.3
2022-10-16T19:28:12.175Z,19.7
2022-10-16T19:30:29.609Z,19.4
2022-10-16T19:32:47.271Z,20
2022-10-16T19:35:05.069Z,20.3
2022-10-16T19:37:22.708Z,19.4
2022-10-16T19:39:40.431Z,19.5
2022-10-16T19:41:57.719Z,19.2
2022-10-16T19:44:15.213Z,19.5
2022-10-16T19:46:32.829Z,18.9
2022-10-16T19:48:50.549Z,19.6
2022-10-16T19:51:09.391Z,19.8
2022-10-16T19:53:25.959Z,19.2
2022-10-16T19:55:43.351Z,19.4
2022-10-16T19:58:00.871Z,20
2022-10-16T20:00:18.521Z,19.2
2022-10-16T20:02:36.431Z,20.1
2022-10-16T20:04:53.693Z,20.1
2022-10-16T20:07:11.812Z,19.3
2022-10-16T20:09:28.911Z,19.1
2022-10-16T20:11:46.685Z,19.3
2022-10-16T20:14:04.209Z,19.6
2022-10-16T20:16:22.024Z,19.6
2022-10-16T20:18:39.509Z,19.2
2022-10-16T20:20:57.116Z,19.9
2022-10-16T20:23:14.774Z,19.2
2022-10-16T20:27:50.123Z,19.1
2022-10-16T20:30:07.653Z,19.3
2022-10-16T20:32:25.269Z,18.8
2022-10-16T20:34:43.074Z,19.6
2022-10-16T20:37:00.627Z,18.8
2022-10-16T20:39:18.489Z,19.4
2022-10-16T20:41:36.239Z,19.5
2022-10-16T20:43:54.128Z,19.3
2022-10-16T20:46:11.845Z,19.1
2022-10-16T20:48:29.938Z,19.2
2022-10-16T20:50:47.348Z,19.2
2022-10-16T20:53:05.046Z,19.5
2022-10-16T20:55:23.023Z,19
2022-10-16T20:57:40.667Z,19.2
2022-10-16T20:59:58.524Z,19.4
2022-10-16T21:02:16.357Z,19.3
2022-10-16T21:04:34.021Z,18.9
2022-10-16T21:06:51.660Z,20.1
2022-10-16T21:09:09.522Z,18.8
2022-10-16T21:11:27.196Z,19
2022-10-16T21:13:44.927Z,18.9
2022-10-16T21:16:16.608Z,18.9
2022-10-16T21:18:34.213Z,19.2
2022-10-16T21:20:52.053Z,19.1
2022-10-16T21:23:09.474Z,19.2
2022-10-16T21:25:26.993Z,18.8
2022-10-16T21:27:44.582Z,20.5
2022-10-16T21:30:02.195Z,19.6
2022-10-16T21:32:19.771Z,20
2022-10-16T21:34:37.458Z,19.4
2022-10-16T21:36:55.177Z,18.8
2022-10-16T21:39:12.846Z,19.2
2022-10-16T21:43:48.159Z,19.4
2022-10-16T21:46:05.589Z,18.8
2022-10-16T21:48:23.020Z,19
2022-10-16T21:50:40.656Z,19.1
2022-10-16T21:52:58.352Z,18.9
2022-10-16T21:55:16.109Z,19.1
2022-10-16T21:57:33.546Z,18.8
2022-10-16T21:59:51.337Z,19.8
2022-10-16T22:02:08.720Z,19.5
2022-10-16T22:04:26.189Z,18.9
2022-10-16T22:06:43.810Z,19.2
2022-10-16T22:09:01.541Z,18.6
2022-10-16T22:11:21.562Z,18.9
2022-10-16T22:13:37.109Z,18.4
2022-10-16T22:15:54.731Z,19
2022-10-16T22:18:12.320Z,18.6
2022-10-16T22:20:29.848Z,18.8
2022-10-16T22:22:47.370Z,19.2
2022-10-16T22:25:04.951Z,18.9
2022-10-16T22:27:22.733Z,19.1
2022-10-16T22:29:40.357Z,18.6
2022-10-16T22:31:58.028Z,18.4
2022-10-16T22:34:15.338Z,19.9
2022-10-16T22:36:32.968Z,19.3
2022-10-16T22:38:50.762Z,18.6
2022-10-16T22:41:08.594Z,18.9
2022-10-16T22:43:26.089Z,18.9
2022-10-16T22:45:44.059Z,19
2022-10-16T22:48:01.579Z,18.8
2022-10-16T22:50:19.265Z,18.1
2022-10-16T22:52:37.005Z,18.6
2022-10-16T22:54:54.410Z,18.6
2022-10-16T22:57:12.102Z,19.9
2022-10-16T22:59:29.623Z,18.9
2022-10-16T23:01:47.162Z,18.8
2022-10-16T23:04:04.563Z,19.7
2022-10-16T23:06:22.200Z,19.3
2022-10-16T23:08:39.718Z,18.4
2022-10-16T23:10:57.354Z,19.5
2022-10-16T23:13:15.194Z,18.8
2022-10-16T23:15:32.765Z,19
2022-10-16T23:17:50.143Z,18.6
2022-10-16T23:20:07.686Z,18.4
2022-10-16T23:22:25.599Z,19.4
2022-10-16T23:24:42.748Z,18.9
2022-10-16T23:27:00.309Z,19.1
2022-10-16T23:29:17.781Z,19.1
2022-10-16T23:31:35.718Z,18.6
2022-10-16T23:33:53.119Z,18.4
2022-10-16T23:36:10.706Z,18.9
2022-10-16T23:38:28.423Z,18.1
2022-10-16T23:40:46.185Z,18.5
2022-10-16T23:45:21.143Z,18.9
2022-10-16T23:47:38.869Z,18.9
2022-10-16T23:49:56.507Z,18.1
2022-10-16T23:52:13.979Z,18.5
2022-10-16T23:54:31.435Z,18.9
2022-10-16T23:56:49.033Z,18.6
2022-10-16T23:59:06.417Z,18.8
